TimeEST,TemperatureF,Dew PointF,Humidity,Sea Level PressureIn,VisibilityMPH,Wind Direction,Wind SpeedMPH,Gust SpeedMPH,PrecipitationIn,Events,Conditions,WindDirDegrees,DateUTC
12:53 AM,70.0,68.0,93,30.12,10.0,Calm,Calm,-,N/A,,Mostly Cloudy,0,2013-01-08 05:53:00
1:53 AM,70.0,69.1,97,30.10,10.0,Calm,Calm,-,0.01,,Scattered Clouds,0,2013-01-08 06:53:00
2:20 AM,73.4,69.8,88,30.09,10.0,East,8.1,-,0.02,Rain,Light Rain,80,2013-01-08 07:20:00
2:41 AM,73.4,69.8,88,30.09,10.0,ESE,4.6,-,0.02,,Scattered Clouds,110,2013-01-08 07:41:00
2:53 AM,73.0,70.0,90,30.09,10.0,East,4.6,-,0.02,,Mostly Cloudy,100,2013-01-08 07:53:00
3:53 AM,72.0,70.0,93,30.09,10.0,SE,9.2,-,0.04,Rain,Light Rain,140,2013-01-08 08:53:00
4:12 AM,73.4,69.8,88,30.08,10.0,East,5.8,-,0.04,Rain,Light Rain,100,2013-01-08 09:12:00
4:53 AM,73.0,69.1,87,30.09,10.0,ESE,4.6,-,0.05,,Mostly Cloudy,120,2013-01-08 09:53:00
5:53 AM,73.0,69.1,87,30.11,10.0,East,6.9,-,N/A,,Scattered Clouds,100,2013-01-08 10:53:00
6:53 AM,73.4,69.8,88,30.13,10.0,East,5.8,-,N/A,,Scattered Clouds,100,2013-01-08 11:53:00
7:53 AM,73.9,70.0,87,30.16,10.0,East,5.8,-,N/A,,Clear,100,2013-01-08 12:53:00
8:53 AM,78.1,70.0,76,30.19,10.0,ESE,10.4,-,N/A,,Scattered Clouds,110,2013-01-08 13:53:00
9:53 AM,78.8,69.8,74,30.20,10.0,ESE,13.8,19.6,N/A,,Scattered Clouds,110,2013-01-08 14:53:00
10:00 AM,78.8,69.8,74,30.21,10.0,ESE,12.7,-,N/A,,Mostly Cloudy,110,2013-01-08 15:00:00
10:18 AM,78.8,69.8,74,30.20,10.0,ESE,11.5,-,N/A,,Scattered Clouds,120,2013-01-08 15:18:00
10:53 AM,81.0,70.0,69,30.20,10.0,ESE,12.7,-,N/A,,Scattered Clouds,110,2013-01-08 15:53:00
11:53 AM,81.0,69.1,67,30.18,10.0,SE,12.7,19.6,N/A,,Scattered Clouds,130,2013-01-08 16:53:00
12:30 PM,80.6,69.8,70,30.16,10.0,ESE,12.7,-,N/A,,Mostly Cloudy,110,2013-01-08 17:30:00
12:53 PM,80.1,70.0,71,30.16,10.0,ESE,15.0,21.9,N/A,,Mostly Cloudy,110,2013-01-08 17:53:00
1:00 PM,80.6,69.8,70,30.15,10.0,SE,15.0,21.9,N/A,,Mostly Cloudy,130,2013-01-08 18:00:00
1:23 PM,80.6,69.8,70,30.14,10.0,ESE,16.1,21.9,N/A,,Scattered Clouds,110,2013-01-08 18:23:00
1:33 PM,82.4,69.8,66,30.14,10.0,ESE,16.1,-,N/A,,Mostly Cloudy,110,2013-01-08 18:33:00
1:53 PM,80.1,70.0,71,30.14,10.0,ESE,17.3,21.9,N/A,,Scattered Clouds,110,2013-01-08 18:53:00
2:00 PM,80.6,71.6,74,30.14,10.0,ESE,16.1,-,N/A,,Mostly Cloudy,120,2013-01-08 19:00:00
2:08 PM,80.6,69.8,70,30.13,10.0,SE,12.7,-,N/A,,Mostly Cloudy,130,2013-01-08 19:08:00
2:25 PM,80.6,69.8,70,30.13,10.0,ESE,15.0,19.6,N/A,,Mostly Cloudy,120,2013-01-08 19:25:00
2:53 PM,80.1,70.0,71,30.14,10.0,ESE,13.8,-,N/A,,Scattered Clouds,120,2013-01-08 19:53:00
3:53 PM,79.0,70.0,74,30.14,10.0,ESE,11.5,-,N/A,,Scattered Clouds,120,2013-01-08 20:53:00
4:53 PM,78.1,70.0,76,30.15,10.0,ESE,13.8,-,N/A,,Scattered Clouds,110,2013-01-08 21:53:00
5:53 PM,77.0,71.1,82,30.17,10.0,East,12.7,-,N/A,,Scattered Clouds,100,2013-01-08 22:53:00
6:53 PM,77.0,71.1,82,30.17,10.0,East,11.5,-,N/A,,Scattered Clouds,90,2013-01-08 23:53:00
7:46 PM,77.0,71.6,83,30.16,10.0,East,12.7,-,N/A,,Mostly Cloudy,100,2013-01-09 00:46:00
7:53 PM,77.0,71.1,82,30.17,10.0,East,13.8,-,N/A,,Scattered Clouds,100,2013-01-09 00:53:00
8:53 PM,77.0,71.1,82,30.17,10.0,East,13.8,-,N/A,,Clear,100,2013-01-09 01:53:00
9:53 PM,77.0,72.0,84,30.17,10.0,ESE,13.8,21.9,0.00,,Scattered Clouds,110,2013-01-09 02:53:00
10:18 PM,77.0,71.6,83,30.17,10.0,ESE,16.1,21.9,N/A,,Overcast,110,2013-01-09 03:18:00
10:25 PM,77.0,71.6,83,30.17,10.0,ESE,13.8,-,N/A,,Overcast,110,2013-01-09 03:25:00
10:53 PM,77.0,70.0,79,30.18,10.0,ESE,10.4,-,N/A,,Mostly Cloudy,120,2013-01-09 03:53:00
11:53 PM,75.9,70.0,82,30.17,10.0,ESE,10.4,-,N/A,,Mostly Cloudy,110,2013-01-09 04:53:00